sensor_id;sensor_type;location;lat;lon;timestamp;P1;durP1;ratioP1;P2;durP2;ratioP2
69894;SDS011;57172;52.034;5.090;2024-01-16T00:01:41;5.63;;;1.73;;
69894;SDS011;57172;52.034;5.090;2024-01-16T00:04:09;5.97;;;1.50;;
69894;SDS011;57172;52.034;5.090;2024-01-16T00:06:40;4.30;;;1.40;;
69894;SDS011;57172;52.034;5.090;2024-01-16T00:09:10;3.70;;;1.25;;
69894;SDS011;57172;52.034;5.090;2024-01-16T00:11:41;5.50;;;1.40;;
69894;SDS011;57172;52.034;5.090;2024-01-16T00:14:08;5.53;;;1.60;;
69894;SDS011;57172;52.034;5.090;2024-01-16T00:16:43;8.50;;;1.70;;
69894;SDS011;57172;52.034;5.090;2024-01-16T00:19:11;5.37;;;1.60;;
69894;SDS011;57172;52.034;5.090;2024-01-16T00:21:39;5.72;;;1.80;;
69894;SDS011;57172;52.034;5.090;2024-01-16T00:24:14;5.20;;;1.40;;
69894;SDS011;57172;52.034;5.090;2024-01-16T00:26:41;6.90;;;1.38;;
69894;SDS011;57172;52.034;5.090;2024-01-16T00:29:09;4.63;;;1.52;;
69894;SDS011;57172;52.034;5.090;2024-01-16T00:31:38;10.50;;;1.80;;
69894;SDS011;57172;52.034;5.090;2024-01-16T00:34:05;4.03;;;1.30;;
69894;SDS011;57172;52.034;5.090;2024-01-16T00:36:32;10.85;;;1.38;;
69894;SDS011;57172;52.034;5.090;2024-01-16T00:38:59;3.83;;;1.20;;
69894;SDS011;57172;52.034;5.090;2024-01-16T00:41:26;2.72;;;1.27;;
69894;SDS011;57172;52.034;5.090;2024-01-16T00:43:53;8.70;;;1.40;;
69894;SDS011;57172;52.034;5.090;2024-01-16T00:46:20;17.42;;;1.73;;
69894;SDS011;57172;52.034;5.090;2024-01-16T00:48:47;5.32;;;1.40;;
69894;SDS011;57172;52.034;5.090;2024-01-16T00:51:14;7.70;;;1.90;;
69894;SDS011;57172;52.034;5.090;2024-01-16T00:53:42;8.25;;;2.00;;
69894;SDS011;57172;52.034;5.090;2024-01-16T00:56:09;5.23;;;1.87;;
69894;SDS011;57172;52.034;5.090;2024-01-16T00:58:37;10.63;;;1.88;;
69894;SDS011;57172;52.034;5.090;2024-01-16T01:01:04;7.63;;;1.80;;
69894;SDS011;57172;52.034;5.090;2024-01-16T01:03:31;8.63;;;2.00;;
69894;SDS011;57172;52.034;5.090;2024-01-16T01:05:58;7.47;;;1.80;;
69894;SDS011;57172;52.034;5.090;2024-01-16T01:08:27;10.80;;;1.80;;
69894;SDS011;57172;52.034;5.090;2024-01-16T01:10:54;7.28;;;1.90;;
69894;SDS011;57172;52.034;5.090;2024-01-16T01:13:22;7.00;;;2.40;;
69894;SDS011;57172;52.034;5.090;2024-01-16T01:15:49;10.45;;;2.13;;
69894;SDS011;57172;52.034;5.090;2024-01-16T01:18:15;5.05;;;1.63;;
69894;SDS011;57172;52.034;5.090;2024-01-16T01:20:43;6.20;;;1.93;;
69894;SDS011;57172;52.034;5.090;2024-01-16T01:23:10;9.20;;;2.13;;
69894;SDS011;57172;52.034;5.090;2024-01-16T01:25:37;6.85;;;2.05;;
69894;SDS011;57172;52.034;5.090;2024-01-16T01:28:04;7.43;;;1.70;;
69894;SDS011;57172;52.034;5.090;2024-01-16T01:30:32;7.40;;;1.98;;
69894;SDS011;57172;52.034;5.090;2024-01-16T01:32:59;8.90;;;1.80;;
69894;SDS011;57172;52.034;5.090;2024-01-16T01:35:26;6.35;;;1.35;;
69894;SDS011;57172;52.034;5.090;2024-01-16T01:37:53;8.50;;;1.60;;
69894;SDS011;57172;52.034;5.090;2024-01-16T01:40:20;5.22;;;1.40;;
69894;SDS011;57172;52.034;5.090;2024-01-16T01:42:47;9.68;;;1.70;;
69894;SDS011;57172;52.034;5.090;2024-01-16T01:45:14;8.70;;;1.57;;
69894;SDS011;57172;52.034;5.090;2024-01-16T01:47:41;5.75;;;1.27;;
69894;SDS011;57172;52.034;5.090;2024-01-16T01:50:09;9.70;;;1.70;;
69894;SDS011;57172;52.034;5.090;2024-01-16T01:52:38;9.60;;;1.90;;
69894;SDS011;57172;52.034;5.090;2024-01-16T01:55:08;9.15;;;1.50;;
69894;SDS011;57172;52.034;5.090;2024-01-16T01:57:38;4.90;;;1.33;;
69894;SDS011;57172;52.034;5.090;2024-01-16T02:00:06;6.70;;;1.42;;
69894;SDS011;57172;52.034;5.090;2024-01-16T02:02:42;4.35;;;1.60;;
69894;SDS011;57172;52.034;5.090;2024-01-16T02:05:10;7.20;;;1.48;;
69894;SDS011;57172;52.034;5.090;2024-01-16T02:07:37;4.85;;;1.23;;
69894;SDS011;57172;52.034;5.090;2024-01-16T02:10:05;1.83;;;0.90;;
69894;SDS011;57172;52.034;5.090;2024-01-16T02:12:32;2.83;;;1.00;;
69894;SDS011;57172;52.034;5.090;2024-01-16T02:14:59;4.65;;;1.15;;
69894;SDS011;57172;52.034;5.090;2024-01-16T02:17:26;1.25;;;0.90;;
69894;SDS011;57172;52.034;5.090;2024-01-16T02:19:53;4.72;;;1.00;;
69894;SDS011;57172;52.034;5.090;2024-01-16T02:22:20;2.77;;;1.00;;
69894;SDS011;57172;52.034;5.090;2024-01-16T02:24:52;3.30;;;1.05;;
69894;SDS011;57172;52.034;5.090;2024-01-16T02:27:21;1.88;;;0.90;;
69894;SDS011;57172;52.034;5.090;2024-01-16T02:29:50;2.90;;;1.00;;
69894;SDS011;57172;52.034;5.090;2024-01-16T02:32:17;1.00;;;0.85;;
69894;SDS011;57172;52.034;5.090;2024-01-16T02:34:44;4.07;;;1.07;;
69894;SDS011;57172;52.034;5.090;2024-01-16T02:37:10;1.67;;;0.95;;
69894;SDS011;57172;52.034;5.090;2024-01-16T02:39:37;3.22;;;1.10;;
69894;SDS011;57172;52.034;5.090;2024-01-16T02:42:04;3.88;;;1.00;;
69894;SDS011;57172;52.034;5.090;2024-01-16T02:44:31;3.75;;;1.10;;
69894;SDS011;57172;52.034;5.090;2024-01-16T02:46:59;4.13;;;1.00;;
69894;SDS011;57172;52.034;5.090;2024-01-16T02:49:26;2.40;;;1.02;;
69894;SDS011;57172;52.034;5.090;2024-01-16T02:51:54;3.25;;;1.10;;
69894;SDS011;57172;52.034;5.090;2024-01-16T02:54:22;12.63;;;1.52;;
69894;SDS011;57172;52.034;5.090;2024-01-16T02:56:48;4.72;;;1.05;;
69894;SDS011;57172;52.034;5.090;2024-01-16T02:59:16;2.47;;;1.00;;
69894;SDS011;57172;52.034;5.090;2024-01-16T03:01:43;4.47;;;1.40;;
69894;SDS011;57172;52.034;5.090;2024-01-16T03:04:10;3.88;;;1.23;;
69894;SDS011;57172;52.034;5.090;2024-01-16T03:06:37;2.03;;;0.93;;
69894;SDS011;57172;52.034;5.090;2024-01-16T03:09:05;4.55;;;1.20;;
69894;SDS011;57172;52.034;5.090;2024-01-16T03:11:32;1.90;;;0.90;;
69894;SDS011;57172;52.034;5.090;2024-01-16T03:13:59;3.83;;;1.10;;
69894;SDS011;57172;52.034;5.090;2024-01-16T03:16:27;6.13;;;1.35;;
69894;SDS011;57172;52.034;5.090;2024-01-16T03:18:54;8.60;;;1.40;;
69894;SDS011;57172;52.034;5.090;2024-01-16T03:21:21;8.70;;;1.25;;
69894;SDS011;57172;52.034;5.090;2024-01-16T03:23:48;5.73;;;1.63;;
69894;SDS011;57172;52.034;5.090;2024-01-16T03:26:16;7.32;;;1.20;;
69894;SDS011;57172;52.034;5.090;2024-01-16T03:28:43;7.63;;;1.60;;
69894;SDS011;57172;52.034;5.090;2024-01-16T03:31:14;6.60;;;1.20;;
69894;SDS011;57172;52.034;5.090;2024-01-16T03:33:41;11.80;;;1.48;;
69894;SDS011;57172;52.034;5.090;2024-01-16T03:36:10;4.30;;;1.43;;
69894;SDS011;57172;52.034;5.090;2024-01-16T03:38:39;6.40;;;1.20;;
69894;SDS011;57172;52.034;5.090;2024-01-16T03:41:06;4.90;;;1.60;;
69894;SDS011;57172;52.034;5.090;2024-01-16T03:43:34;4.80;;;1.23;;
69894;SDS011;57172;52.034;5.090;2024-01-16T03:46:01;5.22;;;1.40;;
69894;SDS011;57172;52.034;5.090;2024-01-16T03:48:28;4.20;;;1.30;;
69894;SDS011;57172;52.034;5.090;2024-01-16T03:50:56;4.75;;;1.20;;
69894;SDS011;57172;52.034;5.090;2024-01-16T03:53:23;5.93;;;1.25;;
69894;SDS011;57172;52.034;5.090;2024-01-16T03:55:50;3.95;;;1.10;;
69894;SDS011;57172;52.034;5.090;2024-01-16T03:58:17;2.95;;;1.10;;
69894;SDS011;57172;52.034;5.090;2024-01-16T04:00:44;5.07;;;1.10;;
69894;SDS011;57172;52.034;5.090;2024-01-16T04:03:12;5.72;;;1.20;;
69894;SDS011;57172;52.034;5.090;2024-01-16T04:05:39;2.83;;;1.10;;
69894;SDS011;57172;52.034;5.090;2024-01-16T04:08:06;1.88;;;1.20;;
69894;SDS011;57172;52.034;5.090;2024-01-16T04:10:33;3.33;;;1.20;;
69894;SDS011;57172;52.034;5.090;2024-01-16T04:13:01;5.73;;;1.60;;
69894;SDS011;57172;52.034;5.090;2024-01-16T04:15:28;4.85;;;1.50;;
69894;SDS011;57172;52.034;5.090;2024-01-16T04:17:55;3.50;;;1.35;;
69894;SDS011;57172;52.034;5.090;2024-01-16T04:20:22;5.90;;;1.50;;
69894;SDS011;57172;52.034;5.090;2024-01-16T04:22:49;4.13;;;1.45;;
69894;SDS011;57172;52.034;5.090;2024-01-16T04:25:16;4.53;;;1.77;;
69894;SDS011;57172;52.034;5.090;2024-01-16T04:27:43;1.90;;;1.20;;
69894;SDS011;57172;52.034;5.090;2024-01-16T04:30:11;2.67;;;1.40;;
69894;SDS011;57172;52.034;5.090;2024-01-16T04:32:38;4.78;;;1.50;;
69894;SDS011;57172;52.034;5.090;2024-01-16T04:35:05;3.78;;;1.30;;
69894;SDS011;57172;52.034;5.090;2024-01-16T04:37:33;2.13;;;1.23;;
69894;SDS011;57172;52.034;5.090;2024-01-16T04:39:59;3.78;;;1.60;;
69894;SDS011;57172;52.034;5.090;2024-01-16T04:42:26;3.47;;;1.55;;
69894;SDS011;57172;52.034;5.090;2024-01-16T04:44:53;6.45;;;1.83;;
69894;SDS011;57172;52.034;5.090;2024-01-16T04:47:20;2.97;;;1.40;;
69894;SDS011;57172;52.034;5.090;2024-01-16T04:49:48;4.30;;;1.70;;
69894;SDS011;57172;52.034;5.090;2024-01-16T04:52:15;3.17;;;1.48;;
69894;SDS011;57172;52.034;5.090;2024-01-16T04:54:43;5.40;;;1.80;;
69894;SDS011;57172;52.034;5.090;2024-01-16T04:57:12;5.05;;;1.52;;
69894;SDS011;57172;52.034;5.090;2024-01-16T04:59:40;4.28;;;1.60;;
69894;SDS011;57172;52.034;5.090;2024-01-16T05:02:10;5.73;;;1.90;;
69894;SDS011;57172;52.034;5.090;2024-01-16T05:04:37;4.43;;;1.65;;
69894;SDS011;57172;52.034;5.090;2024-01-16T05:07:04;2.90;;;1.70;;
69894;SDS011;57172;52.034;5.090;2024-01-16T05:09:32;5.70;;;1.73;;
69894;SDS011;57172;52.034;5.090;2024-01-16T05:12:03;4.03;;;1.63;;
69894;SDS011;57172;52.034;5.090;2024-01-16T05:14:31;10.90;;;1.83;;
69894;SDS011;57172;52.034;5.090;2024-01-16T05:16:58;5.43;;;1.80;;
69894;SDS011;57172;52.034;5.090;2024-01-16T05:19:25;4.57;;;1.75;;
69894;SDS011;57172;52.034;5.090;2024-01-16T05:21:53;5.35;;;1.65;;
69894;SDS011;57172;52.034;5.090;2024-01-16T05:24:20;5.60;;;1.95;;
69894;SDS011;57172;52.034;5.090;2024-01-16T05:26:47;7.90;;;1.80;;
69894;SDS011;57172;52.034;5.090;2024-01-16T05:29:14;5.72;;;1.83;;
69894;SDS011;57172;52.034;5.090;2024-01-16T05:31:42;6.10;;;2.00;;
69894;SDS011;57172;52.034;5.090;2024-01-16T05:34:10;4.53;;;1.83;;
69894;SDS011;57172;52.034;5.090;2024-01-16T05:36:39;7.65;;;2.63;;
69894;SDS011;57172;52.034;5.090;2024-01-16T05:39:08;11.17;;;2.77;;
69894;SDS011;57172;52.034;5.090;2024-01-16T05:41:35;8.48;;;3.00;;
69894;SDS011;57172;52.034;5.090;2024-01-16T05:44:02;7.70;;;2.85;;
69894;SDS011;57172;52.034;5.090;2024-01-16T05:46:32;9.57;;;3.20;;
69894;SDS011;57172;52.034;5.090;2024-01-16T05:48:59;7.50;;;3.13;;
69894;SDS011;57172;52.034;5.090;2024-01-16T05:51:27;5.27;;;2.70;;
69894;SDS011;57172;52.034;5.090;2024-01-16T05:53:55;8.10;;;3.83;;
69894;SDS011;57172;52.034;5.090;2024-01-16T05:56:22;8.60;;;3.30;;
69894;SDS011;57172;52.034;5.090;2024-01-16T05:58:49;7.82;;;3.20;;
69894;SDS011;57172;52.034;5.090;2024-01-16T06:01:16;8.55;;;3.70;;
69894;SDS011;57172;52.034;5.090;2024-01-16T06:03:43;6.77;;;2.93;;
69894;SDS011;57172;52.034;5.090;2024-01-16T06:06:12;10.80;;;3.70;;
69894;SDS011;57172;52.034;5.090;2024-01-16T06:08:39;6.40;;;3.30;;
69894;SDS011;57172;52.034;5.090;2024-01-16T06:11:06;8.23;;;3.63;;
69894;SDS011;57172;52.034;5.090;2024-01-16T06:13:33;9.80;;;3.88;;
69894;SDS011;57172;52.034;5.090;2024-01-16T06:16:00;8.17;;;3.90;;
69894;SDS011;57172;52.034;5.090;2024-01-16T06:18:27;7.65;;;3.22;;
69894;SDS011;57172;52.034;5.090;2024-01-16T06:20:54;11.63;;;4.10;;
69894;SDS011;57172;52.034;5.090;2024-01-16T06:23:21;8.90;;;3.80;;
69894;SDS011;57172;52.034;5.090;2024-01-16T06:25:48;13.90;;;3.83;;
69894;SDS011;57172;52.034;5.090;2024-01-16T06:28:16;15.70;;;4.00;;
69894;SDS011;57172;52.034;5.090;2024-01-16T06:30:43;13.27;;;3.60;;
69894;SDS011;57172;52.034;5.090;2024-01-16T06:33:10;10.57;;;3.80;;
69894;SDS011;57172;52.034;5.090;2024-01-16T06:35:37;12.82;;;3.90;;
69894;SDS011;57172;52.034;5.090;2024-01-16T06:38:05;14.00;;;4.10;;
69894;SDS011;57172;52.034;5.090;2024-01-16T06:40:33;12.63;;;4.13;;
69894;SDS011;57172;52.034;5.090;2024-01-16T06:43:00;9.38;;;3.90;;
69894;SDS011;57172;52.034;5.090;2024-01-16T06:45:29;12.10;;;3.70;;
69894;SDS011;57172;52.034;5.090;2024-01-16T06:47:56;8.60;;;3.80;;
69894;SDS011;57172;52.034;5.090;2024-01-16T06:50:23;9.25;;;3.22;;
69894;SDS011;57172;52.034;5.090;2024-01-16T06:52:50;11.73;;;2.90;;
69894;SDS011;57172;52.034;5.090;2024-01-16T06:55:18;11.55;;;2.92;;
69894;SDS011;57172;52.034;5.090;2024-01-16T06:57:44;10.40;;;3.20;;
69894;SDS011;57172;52.034;5.090;2024-01-16T07:00:14;8.98;;;2.63;;
69894;SDS011;57172;52.034;5.090;2024-01-16T07:02:41;9.75;;;2.78;;
69894;SDS011;57172;52.034;5.090;2024-01-16T07:05:11;12.67;;;3.40;;
69894;SDS011;57172;52.034;5.090;2024-01-16T07:07:38;14.57;;;3.63;;
69894;SDS011;57172;52.034;5.090;2024-01-16T07:10:06;12.77;;;3.30;;
69894;SDS011;57172;52.034;5.090;2024-01-16T07:12:44;6.97;;;2.97;;
69894;SDS011;57172;52.034;5.090;2024-01-16T07:15:11;9.55;;;3.50;;
69894;SDS011;57172;52.034;5.090;2024-01-16T07:17:39;8.00;;;3.33;;
69894;SDS011;57172;52.034;5.090;2024-01-16T07:20:07;9.35;;;3.63;;
69894;SDS011;57172;52.034;5.090;2024-01-16T07:22:36;12.55;;;3.90;;
69894;SDS011;57172;52.034;5.090;2024-01-16T07:25:03;10.18;;;3.55;;
69894;SDS011;57172;52.034;5.090;2024-01-16T07:27:30;11.93;;;3.22;;
69894;SDS011;57172;52.034;5.090;2024-01-16T07:29:57;10.73;;;3.67;;
69894;SDS011;57172;52.034;5.090;2024-01-16T07:32:24;9.85;;;3.95;;
69894;SDS011;57172;52.034;5.090;2024-01-16T07:34:52;10.25;;;3.50;;
69894;SDS011;57172;52.034;5.090;2024-01-16T07:37:19;11.23;;;3.40;;
69894;SDS011;57172;52.034;5.090;2024-01-16T07:39:47;9.65;;;3.10;;
69894;SDS011;57172;52.034;5.090;2024-01-16T07:42:14;8.27;;;3.03;;
69894;SDS011;57172;52.034;5.090;2024-01-16T07:44:41;8.13;;;3.03;;
69894;SDS011;57172;52.034;5.090;2024-01-16T07:47:08;7.47;;;2.95;;
69894;SDS011;57172;52.034;5.090;2024-01-16T07:49:35;9.00;;;2.83;;
69894;SDS011;57172;52.034;5.090;2024-01-16T07:52:02;6.13;;;2.60;;
69894;SDS011;57172;52.034;5.090;2024-01-16T07:54:29;7.57;;;2.13;;
69894;SDS011;57172;52.034;5.090;2024-01-16T07:56:57;8.32;;;3.20;;
69894;SDS011;57172;52.034;5.090;2024-01-16T07:59:24;9.70;;;2.50;;
69894;SDS011;57172;52.034;5.090;2024-01-16T08:01:52;7.85;;;2.33;;
69894;SDS011;57172;52.034;5.090;2024-01-16T08:04:20;6.45;;;1.83;;
69894;SDS011;57172;52.034;5.090;2024-01-16T08:06:47;5.30;;;2.13;;
69894;SDS011;57172;52.034;5.090;2024-01-16T08:09:14;7.90;;;2.10;;
69894;SDS011;57172;52.034;5.090;2024-01-16T08:11:41;10.68;;;2.28;;
69894;SDS011;57172;52.034;5.090;2024-01-16T08:14:08;9.82;;;2.72;;
69894;SDS011;57172;52.034;5.090;2024-01-16T08:16:35;6.22;;;2.30;;
69894;SDS011;57172;52.034;5.090;2024-01-16T08:19:02;5.40;;;2.50;;
69894;SDS011;57172;52.034;5.090;2024-01-16T08:21:30;11.73;;;2.90;;
69894;SDS011;57172;52.034;5.090;2024-01-16T08:23:57;8.25;;;2.90;;
69894;SDS011;57172;52.034;5.090;2024-01-16T08:26:24;6.72;;;2.75;;
69894;SDS011;57172;52.034;5.090;2024-01-16T08:28:51;11.90;;;2.72;;
69894;SDS011;57172;52.034;5.090;2024-01-16T08:31:18;4.27;;;2.33;;
69894;SDS011;57172;52.034;5.090;2024-01-16T08:33:45;10.32;;;2.80;;
69894;SDS011;57172;52.034;5.090;2024-01-16T08:36:17;8.70;;;2.58;;
69894;SDS011;57172;52.034;5.090;2024-01-16T08:38:44;5.22;;;2.35;;
69894;SDS011;57172;52.034;5.090;2024-01-16T08:41:11;7.82;;;3.13;;
69894;SDS011;57172;52.034;5.090;2024-01-16T08:43:41;4.73;;;2.40;;
69894;SDS011;57172;52.034;5.090;2024-01-16T08:46:09;9.13;;;3.00;;
69894;SDS011;57172;52.034;5.090;2024-01-16T08:48:36;8.27;;;2.92;;
69894;SDS011;57172;52.034;5.090;2024-01-16T08:51:07;8.75;;;2.85;;
69894;SDS011;57172;52.034;5.090;2024-01-16T08:53:38;8.88;;;2.72;;
69894;SDS011;57172;52.034;5.090;2024-01-16T08:56:05;8.50;;;2.33;;
69894;SDS011;57172;52.034;5.090;2024-01-16T08:58:35;7.47;;;2.88;;
69894;SDS011;57172;52.034;5.090;2024-01-16T09:01:04;9.05;;;2.85;;
69894;SDS011;57172;52.034;5.090;2024-01-16T09:03:32;11.60;;;3.05;;
69894;SDS011;57172;52.034;5.090;2024-01-16T09:06:00;8.73;;;2.55;;
69894;SDS011;57172;52.034;5.090;2024-01-16T09:08:27;4.87;;;2.47;;
69894;SDS011;57172;52.034;5.090;2024-01-16T09:10:56;8.25;;;2.75;;
69894;SDS011;57172;52.034;5.090;2024-01-16T09:13:23;7.20;;;2.65;;
69894;SDS011;57172;52.034;5.090;2024-01-16T09:15:50;8.15;;;2.47;;
69894;SDS011;57172;52.034;5.090;2024-01-16T09:18:17;9.70;;;3.05;;
69894;SDS011;57172;52.034;5.090;2024-01-16T09:20:44;6.57;;;2.43;;
69894;SDS011;57172;52.034;5.090;2024-01-16T09:23:11;6.90;;;2.40;;
69894;SDS011;57172;52.034;5.090;2024-01-16T09:25:39;7.07;;;2.75;;
69894;SDS011;57172;52.034;5.090;2024-01-16T09:28:06;9.00;;;2.90;;
69894;SDS011;57172;52.034;5.090;2024-01-16T09:30:33;8.25;;;2.90;;
69894;SDS011;57172;52.034;5.090;2024-01-16T09:33:00;8.13;;;2.67;;
69894;SDS011;57172;52.034;5.090;2024-01-16T09:35:28;7.68;;;2.72;;
69894;SDS011;57172;52.034;5.090;2024-01-16T09:37:54;5.63;;;2.45;;
69894;SDS011;57172;52.034;5.090;2024-01-16T09:40:21;11.00;;;2.88;;
69894;SDS011;57172;52.034;5.090;2024-01-16T09:42:48;9.00;;;3.10;;
69894;SDS011;57172;52.034;5.090;2024-01-16T09:45:19;8.97;;;2.70;;
69894;SDS011;57172;52.034;5.090;2024-01-16T09:47:49;9.15;;;3.00;;
69894;SDS011;57172;52.034;5.090;2024-01-16T09:50:18;7.90;;;2.75;;
69894;SDS011;57172;52.034;5.090;2024-01-16T09:52:46;10.40;;;3.00;;
69894;SDS011;57172;52.034;5.090;2024-01-16T09:55:15;7.05;;;2.80;;
69894;SDS011;57172;52.034;5.090;2024-01-16T09:57:43;7.90;;;2.50;;
69894;SDS011;57172;52.034;5.090;2024-01-16T10:00:12;9.07;;;2.92;;
69894;SDS011;57172;52.034;5.090;2024-01-16T10:02:40;7.07;;;2.83;;
69894;SDS011;57172;52.034;5.090;2024-01-16T10:05:09;7.05;;;2.50;;
69894;SDS011;57172;52.034;5.090;2024-01-16T10:07:38;5.60;;;2.42;;
69894;SDS011;57172;52.034;5.090;2024-01-16T10:10:06;7.27;;;2.60;;
69894;SDS011;57172;52.034;5.090;2024-01-16T10:12:37;5.70;;;2.33;;
69894;SDS011;57172;52.034;5.090;2024-01-16T10:15:06;9.18;;;2.58;;
69894;SDS011;57172;52.034;5.090;2024-01-16T10:17:37;9.25;;;2.35;;
69894;SDS011;57172;52.034;5.090;2024-01-16T10:20:06;5.50;;;2.83;;
69894;SDS011;57172;52.034;5.090;2024-01-16T10:22:34;7.43;;;2.50;;
69894;SDS011;57172;52.034;5.090;2024-01-16T10:25:04;8.00;;;2.60;;
69894;SDS011;57172;52.034;5.090;2024-01-16T10:27:37;6.10;;;2.22;;
69894;SDS011;57172;52.034;5.090;2024-01-16T10:30:06;8.00;;;2.70;;
69894;SDS011;57172;52.034;5.090;2024-01-16T10:32:37;7.47;;;2.85;;
69894;SDS011;57172;52.034;5.090;2024-01-16T10:35:06;6.10;;;2.47;;
69894;SDS011;57172;52.034;5.090;2024-01-16T10:37:44;6.45;;;2.42;;
69894;SDS011;57172;52.034;5.090;2024-01-16T10:40:18;8.40;;;2.55;;
69894;SDS011;57172;52.034;5.090;2024-01-16T10:45:23;9.38;;;2.83;;
69894;SDS011;57172;52.034;5.090;2024-01-16T10:48:00;4.93;;;2.20;;
69894;SDS011;57172;52.034;5.090;2024-01-16T10:50:35;10.73;;;2.55;;
69894;SDS011;57172;52.034;5.090;2024-01-16T10:53:04;7.53;;;2.88;;
69894;SDS011;57172;52.034;5.090;2024-01-16T10:55:38;5.63;;;2.35;;
69894;SDS011;57172;52.034;5.090;2024-01-16T10:58:14;9.70;;;2.63;;
69894;SDS011;57172;52.034;5.090;2024-01-16T11:00:43;5.47;;;2.50;;
69894;SDS011;57172;52.034;5.090;2024-01-16T11:03:19;10.43;;;2.95;;
69894;SDS011;57172;52.034;5.090;2024-01-16T11:05:57;7.00;;;2.60;;
69894;SDS011;57172;52.034;5.090;2024-01-16T11:08:24;9.23;;;2.47;;
69894;SDS011;57172;52.034;5.090;2024-01-16T11:10:57;7.95;;;2.42;;
69894;SDS011;57172;52.034;5.090;2024-01-16T11:13:27;6.60;;;2.30;;
69894;SDS011;57172;52.034;5.090;2024-01-16T11:15:54;6.40;;;2.63;;
69894;SDS011;57172;52.034;5.090;2024-01-16T11:18:24;5.07;;;2.13;;
69894;SDS011;57172;52.034;5.090;2024-01-16T11:20:53;5.60;;;2.67;;
69894;SDS011;57172;52.034;5.090;2024-01-16T11:23:33;6.93;;;2.60;;
69894;SDS011;57172;52.034;5.090;2024-01-16T11:28:54;6.63;;;2.63;;
69894;SDS011;57172;52.034;5.090;2024-01-16T11:34:01;6.85;;;2.72;;
69894;SDS011;57172;52.034;5.090;2024-01-16T11:39:19;6.60;;;2.77;;
69894;SDS011;57172;52.034;5.090;2024-01-16T11:41:48;8.13;;;2.85;;
69894;SDS011;57172;52.034;5.090;2024-01-16T11:47:09;7.32;;;3.08;;
69894;SDS011;57172;52.034;5.090;2024-01-16T11:49:46;9.82;;;3.20;;
69894;SDS011;57172;52.034;5.090;2024-01-16T11:52:14;7.00;;;2.70;;
69894;SDS011;57172;52.034;5.090;2024-01-16T11:54:42;6.00;;;2.80;;
69894;SDS011;57172;52.034;5.090;2024-01-16T12:05:16;7.57;;;2.90;;
69894;SDS011;57172;52.034;5.090;2024-01-16T12:07:47;7.43;;;3.10;;
69894;SDS011;57172;52.034;5.090;2024-01-16T12:10:22;8.00;;;3.20;;
69894;SDS011;57172;52.034;5.090;2024-01-16T12:12:51;5.43;;;2.78;;
69894;SDS011;57172;52.034;5.090;2024-01-16T12:15:29;8.40;;;3.47;;
69894;SDS011;57172;52.034;5.090;2024-01-16T12:18:00;6.47;;;3.10;;
69894;SDS011;57172;52.034;5.090;2024-01-16T12:20:29;6.88;;;3.00;;
69894;SDS011;57172;52.034;5.090;2024-01-16T12:23:01;7.75;;;3.20;;
69894;SDS011;57172;52.034;5.090;2024-01-16T12:25:33;7.68;;;3.05;;
69894;SDS011;57172;52.034;5.090;2024-01-16T12:28:21;9.10;;;3.60;;
69894;SDS011;57172;52.034;5.090;2024-01-16T12:30:58;7.30;;;3.40;;
69894;SDS011;57172;52.034;5.090;2024-01-16T12:33:27;6.85;;;3.00;;
69894;SDS011;57172;52.034;5.090;2024-01-16T12:36:01;8.35;;;3.08;;
69894;SDS011;57172;52.034;5.090;2024-01-16T12:38:29;7.93;;;3.47;;
69894;SDS011;57172;52.034;5.090;2024-01-16T12:40:56;8.70;;;3.28;;
69894;SDS011;57172;52.034;5.090;2024-01-16T12:43:25;9.17;;;3.40;;
69894;SDS011;57172;52.034;5.090;2024-01-16T12:45:55;6.95;;;3.10;;
69894;SDS011;57172;52.034;5.090;2024-01-16T12:48:24;5.57;;;2.92;;
69894;SDS011;57172;52.034;5.090;2024-01-16T12:50:59;9.55;;;2.83;;
69894;SDS011;57172;52.034;5.090;2024-01-16T12:53:31;6.15;;;2.72;;
69894;SDS011;57172;52.034;5.090;2024-01-16T12:56:01;5.53;;;2.80;;
69894;SDS011;57172;52.034;5.090;2024-01-16T12:58:33;7.85;;;2.85;;
69894;SDS011;57172;52.034;5.090;2024-01-16T13:04:04;5.95;;;2.78;;
69894;SDS011;57172;52.034;5.090;2024-01-16T13:06:31;6.00;;;2.95;;
69894;SDS011;57172;52.034;5.090;2024-01-16T13:09:08;8.37;;;3.20;;
69894;SDS011;57172;52.034;5.090;2024-01-16T13:11:53;7.93;;;3.00;;
69894;SDS011;57172;52.034;5.090;2024-01-16T13:14:22;8.20;;;3.20;;
69894;SDS011;57172;52.034;5.090;2024-01-16T13:16:52;8.73;;;3.03;;
69894;SDS011;57172;52.034;5.090;2024-01-16T13:19:23;6.93;;;3.42;;
69894;SDS011;57172;52.034;5.090;2024-01-16T13:21:51;7.90;;;3.00;;
69894;SDS011;57172;52.034;5.090;2024-01-16T13:24:18;5.55;;;2.95;;
69894;SDS011;57172;52.034;5.090;2024-01-16T13:26:48;7.20;;;3.17;;
69894;SDS011;57172;52.034;5.090;2024-01-16T13:29:16;7.38;;;2.88;;
69894;SDS011;57172;52.034;5.090;2024-01-16T13:31:43;7.55;;;3.13;;
69894;SDS011;57172;52.034;5.090;2024-01-16T13:34:10;6.93;;;2.80;;
69894;SDS011;57172;52.034;5.090;2024-01-16T13:36:37;7.30;;;3.05;;
69894;SDS011;57172;52.034;5.090;2024-01-16T13:39:24;7.25;;;3.22;;
69894;SDS011;57172;52.034;5.090;2024-01-16T13:41:52;7.60;;;3.08;;
69894;SDS011;57172;52.034;5.090;2024-01-16T13:44:19;6.22;;;2.90;;
69894;SDS011;57172;52.034;5.090;2024-01-16T13:46:46;6.30;;;3.00;;
69894;SDS011;57172;52.034;5.090;2024-01-16T13:49:31;7.53;;;2.70;;
69894;SDS011;57172;52.034;5.090;2024-01-16T13:52:00;5.90;;;2.90;;
69894;SDS011;57172;52.034;5.090;2024-01-16T13:54:27;7.55;;;2.80;;
69894;SDS011;57172;52.034;5.090;2024-01-16T13:56:54;9.57;;;3.30;;
69894;SDS011;57172;52.034;5.090;2024-01-16T13:59:33;6.87;;;2.83;;
69894;SDS011;57172;52.034;5.090;2024-01-16T14:02:04;5.50;;;2.80;;
69894;SDS011;57172;52.034;5.090;2024-01-16T14:04:33;9.27;;;2.88;;
69894;SDS011;57172;52.034;5.090;2024-01-16T14:07:00;9.18;;;3.28;;
69894;SDS011;57172;52.034;5.090;2024-01-16T14:09:39;9.30;;;3.38;;
69894;SDS011;57172;52.034;5.090;2024-01-16T14:12:11;8.30;;;3.10;;
69894;SDS011;57172;52.034;5.090;2024-01-16T14:14:40;6.75;;;3.33;;
69894;SDS011;57172;52.034;5.090;2024-01-16T14:17:08;5.75;;;3.03;;
69894;SDS011;57172;52.034;5.090;2024-01-16T14:19:35;7.85;;;3.17;;
69894;SDS011;57172;52.034;5.090;2024-01-16T14:22:03;10.80;;;3.60;;
69894;SDS011;57172;52.034;5.090;2024-01-16T14:24:30;10.23;;;3.63;;
69894;SDS011;57172;52.034;5.090;2024-01-16T14:26:57;7.43;;;3.08;;
69894;SDS011;57172;52.034;5.090;2024-01-16T14:29:24;8.38;;;3.58;;
69894;SDS011;57172;52.034;5.090;2024-01-16T14:31:53;8.13;;;3.97;;
69894;SDS011;57172;52.034;5.090;2024-01-16T14:34:23;9.88;;;3.55;;
69894;SDS011;57172;52.034;5.090;2024-01-16T14:36:50;7.47;;;3.40;;
69894;SDS011;57172;52.034;5.090;2024-01-16T14:39:17;8.30;;;3.60;;
69894;SDS011;57172;52.034;5.090;2024-01-16T14:41:52;8.27;;;3.28;;
69894;SDS011;57172;52.034;5.090;2024-01-16T14:44:19;9.27;;;3.55;;
69894;SDS011;57172;52.034;5.090;2024-01-16T14:46:46;8.85;;;3.70;;
69894;SDS011;57172;52.034;5.090;2024-01-16T14:49:18;6.40;;;3.17;;
69894;SDS011;57172;52.034;5.090;2024-01-16T14:51:45;9.60;;;3.45;;
69894;SDS011;57172;52.034;5.090;2024-01-16T14:54:13;6.70;;;3.35;;
69894;SDS011;57172;52.034;5.090;2024-01-16T14:56:40;8.68;;;3.13;;
69894;SDS011;57172;52.034;5.090;2024-01-16T14:59:07;8.02;;;3.20;;
69894;SDS011;57172;52.034;5.090;2024-01-16T15:01:40;10.97;;;3.17;;
69894;SDS011;57172;52.034;5.090;2024-01-16T15:04:07;8.40;;;2.75;;
69894;SDS011;57172;52.034;5.090;2024-01-16T15:06:34;6.40;;;3.42;;
69894;SDS011;57172;52.034;5.090;2024-01-16T15:09:02;8.00;;;2.72;;
69894;SDS011;57172;52.034;5.090;2024-01-16T15:11:30;7.75;;;2.70;;
69894;SDS011;57172;52.034;5.090;2024-01-16T15:13:57;9.67;;;2.93;;
69894;SDS011;57172;52.034;5.090;2024-01-16T15:16:24;10.00;;;2.90;;
69894;SDS011;57172;52.034;5.090;2024-01-16T15:18:52;6.05;;;2.70;;